Terminal Aerodrome Forecast
Issued by NWS

Home | Current Version | Previous Version | Text Only | Print | Product List | Glossary On
Versions: 1 2 3 4 5 6 7 8 9 10 11 12 13 14 15 16 17 18 19 20 21 22 23 24
917
FTUS44 KOUN 271126
TAFHBR
TAF
KHBR 271126Z 2712/2812 35010KT P6SM SCT015
      TEMPO 2712/2714 BKN015
     FM271700 01008KT P6SM SCT250
     FM280000 14006KT P6SM SCT250
     FM280800 14009KT P6SM BKN120=

USA.gov is the U.S. government's official web portal to all federal, state and local government web resources and services.